This is the latest recevied weather packets stored in our database for station/object IZ5MJO-13. If no packets are shown the sender has not sent any weather packets the latest 10 day(s).
| Time | Temp. | Humidity | Pressure | Rain* | Wind** | Luminosity | Snow |
|---|---|---|---|---|---|---|---|
| 1777599818 | 8.33° C | 39% | 1012.3 hPa | - | - | - | - |
| 1777598917 | 8.89° C | 39% | 1012.4 hPa | - | - | - | - |
| 1777598017 | 8.33° C | 39% | 1012.3 hPa | - | - | - | - |
| 1777597117 | 8.89° C | 38% | 1012.2 hPa | - | - | - | - |
| 1777596216 | 8.89° C | 39% | 1012.1 hPa | - | - | - | - |
| 1777595423 | 10.56° C | 31% | 1011.2 hPa | - | - | - | - |
| 1777595316 | 8.89° C | 39% | 1012.2 hPa | - | - | - | - |
| 1777594416 | 8.33° C | 38% | 1012 hPa | - | - | - | - |
| 1777593515 | 8.33° C | 38% | 1012 hPa | - | - | - | - |
| 1777592615 | 7.78° C | 38% | 1011.9 hPa | - | - | - | - |
| 1777591715 | 7.78° C | 35% | 1011.8 hPa | - | - | - | - |
| 1777590815 | 8.89° C | 35% | 1011.8 hPa | - | - | - | - |
| 1777589915 | 9.44° C | 35% | 1011.9 hPa | - | - | - | - |
| 1777589014 | 9.44° C | 35% | 1011.9 hPa | - | - | - | - |
| 1777588114 | 8.89° C | 34% | 1011.9 hPa | - | - | - | - |
| 1777587214 | 8.89° C | 33% | 1011.8 hPa | - | - | - | - |
| 1777586314 | 8.89° C | 33% | 1011.6 hPa | - | - | - | - |
| 1777585414 | 9.44° C | 33% | 1011.5 hPa | - | - | - | - |
| 1777584514 | 10° C | 32% | 1011.7 hPa | - | - | - | - |
| 1777583613 | 10° C | 32% | 1011.5 hPa | - | - | - | - |
| 1777582713 | 10.56° C | 31% | 1011.5 hPa | - | - | - | - |
| 1777581813 | 10.56° C | 31% | 1011.5 hPa | - | - | - | - |
| 1777580913 | 10.56° C | 31% | 1011.2 hPa | - | - | - | - |
| 1777580021 | 11.11° C | 32% | 1011.3 hPa | - | - | - | - |
| 1777579121 | 11.11° C | 32% | 1011.2 hPa | - | - | - | - |
* Rain since midnight (hover to see other rain measurements)
** Current wind speed in m/s (hover to see current wind gust speed)